createdAt,value
2019-03-01T00:01:57.728Z,8.14
2019-03-01T00:05:36.634Z,8.05
2019-03-01T00:09:32.073Z,8.01
2019-03-01T00:12:49.738Z,8.16
2019-03-01T00:16:12.045Z,8.17
2019-03-01T00:19:53.184Z,8.29
2019-03-01T00:23:50.355Z,8.28
2019-03-01T00:27:52.039Z,8.28
2019-03-01T00:31:30.999Z,8.34
2019-03-01T00:35:29.575Z,8.30
2019-03-01T00:39:00.373Z,8.23
2019-03-01T00:42:36.857Z,8.19
2019-03-01T00:45:42.163Z,8.15
2019-03-01T00:48:47.535Z,8.03
2019-03-01T00:51:52.810Z,7.97
2019-03-01T00:54:58.083Z,8.09
2019-03-01T00:58:03.540Z,8.01
2019-03-01T01:01:08.838Z,7.99
2019-03-01T01:04:18.973Z,8.20
2019-03-01T01:07:21.145Z,8.28
2019-03-01T01:10:28.851Z,8.27
2019-03-01T01:13:34.048Z,8.31
2019-03-01T01:16:39.335Z,8.34
2019-03-01T01:19:44.573Z,8.34
2019-03-01T01:22:49.874Z,8.37
2019-03-01T01:25:55.138Z,8.32
2019-03-01T01:29:00.430Z,8.32
2019-03-01T01:32:05.850Z,8.36
2019-03-01T01:35:11.166Z,8.34
2019-03-01T01:38:16.405Z,8.39
2019-03-01T01:41:21.733Z,8.46
2019-03-01T01:44:27.010Z,8.39
2019-03-01T01:47:32.225Z,8.41
2019-03-01T01:50:37.550Z,8.35
2019-03-01T01:53:42.819Z,8.34
2019-03-01T01:56:48.201Z,8.33
2019-03-01T01:59:53.439Z,8.32
2019-03-01T02:02:58.800Z,8.32
2019-03-01T02:06:04.058Z,8.39
2019-03-01T02:09:24.578Z,8.35
2019-03-01T02:12:30.028Z,8.45
2019-03-01T02:15:35.310Z,8.52
2019-03-01T02:18:40.590Z,8.43
2019-03-01T02:21:45.864Z,8.43
2019-03-01T02:24:51.378Z,8.41
2019-03-01T02:27:56.629Z,8.38
2019-03-01T02:31:04.258Z,8.36
2019-03-01T02:34:09.511Z,8.38
2019-03-01T02:37:17.074Z,8.32
2019-03-01T02:40:22.321Z,8.30
2019-03-01T02:43:27.630Z,8.37
2019-03-01T02:46:32.907Z,8.35
2019-03-01T02:49:38.212Z,8.34
2019-03-01T02:52:43.575Z,8.33
2019-03-01T02:55:48.819Z,8.44
2019-03-01T02:58:54.121Z,8.42
2019-03-01T03:01:59.394Z,8.37
2019-03-01T03:05:05.905Z,8.38
2019-03-01T03:08:11.212Z,8.41
2019-03-01T03:11:16.478Z,8.38
2019-03-01T03:14:21.825Z,8.35
2019-03-01T03:17:27.085Z,8.35
2019-03-01T03:20:32.334Z,8.35
2019-03-01T03:23:37.554Z,8.39
2019-03-01T03:26:42.804Z,8.37
2019-03-01T03:29:50.196Z,8.43
2019-03-01T03:32:56.159Z,8.34
2019-03-01T03:36:01.449Z,8.34
2019-03-01T03:39:08.985Z,8.35
2019-03-01T03:42:14.321Z,8.37
2019-03-01T03:45:19.745Z,8.37
2019-03-01T03:48:25.890Z,8.33
2019-03-01T03:51:31.153Z,8.29
2019-03-01T03:54:36.399Z,8.37
2019-03-01T03:57:41.792Z,8.34
2019-03-01T04:00:47.007Z,8.33
2019-03-01T04:03:52.262Z,8.33
2019-03-01T04:06:57.532Z,8.31
2019-03-01T04:10:02.844Z,8.29
2019-03-01T04:13:09.105Z,8.26
2019-03-01T04:16:14.347Z,8.30
2019-03-01T04:19:19.572Z,8.29
2019-03-01T04:22:24.948Z,8.28
2019-03-01T04:25:30.421Z,8.29
2019-03-01T04:28:35.738Z,8.28
2019-03-01T04:31:41.030Z,8.38
2019-03-01T04:34:47.457Z,8.39
2019-03-01T04:37:52.736Z,8.33
2019-03-01T04:40:57.988Z,8.26
2019-03-01T04:44:03.197Z,8.24
2019-03-01T04:47:08.785Z,8.26
2019-03-01T04:50:14.087Z,8.22
2019-03-01T04:53:19.364Z,8.19
2019-03-01T04:56:24.659Z,8.22
2019-03-01T04:59:30.938Z,8.24
2019-03-01T05:02:36.297Z,8.24
2019-03-01T05:05:41.573Z,8.21
2019-03-01T05:08:46.875Z,8.19
2019-03-01T05:11:52.159Z,8.18
2019-03-01T05:14:57.427Z,8.20
2019-03-01T05:18:02.712Z,8.19
2019-03-01T05:21:07.975Z,8.21
2019-03-01T05:24:13.226Z,8.17
2019-03-01T05:27:18.597Z,8.12
2019-03-01T05:30:23.844Z,8.02
2019-03-01T05:33:29.132Z,7.89
2019-03-01T05:36:34.464Z,7.82
2019-03-01T05:39:41.060Z,7.83
2019-03-01T05:42:46.413Z,7.84
2019-03-01T05:45:51.673Z,7.96
2019-03-01T05:48:57.313Z,7.94
2019-03-01T05:52:02.714Z,8.03
2019-03-01T05:55:08.216Z,8.01
2019-03-01T05:58:33.378Z,8.07
2019-03-01T06:01:43.898Z,8.04
2019-03-01T06:04:52.839Z,8.02
2019-03-01T06:08:51.799Z,8.02
2019-03-01T06:12:29.928Z,8.05
2019-03-01T06:16:22.216Z,8.05
2019-03-01T06:20:11.153Z,8.07
2019-03-01T06:23:38.364Z,8.07
2019-03-01T06:27:29.633Z,8.13
2019-03-01T06:31:15.979Z,8.05
2019-03-01T06:35:08.267Z,8.11
2019-03-01T06:39:33.606Z,8.09
2019-03-01T06:43:15.001Z,8.09
2019-03-01T06:46:48.642Z,8.11
2019-03-01T06:50:09.654Z,8.15
2019-03-01T06:53:15.998Z,8.15
2019-03-01T06:56:21.319Z,8.20
2019-03-01T06:59:26.609Z,8.19
2019-03-01T07:02:40.226Z,8.28
2019-03-01T07:05:45.669Z,8.23
2019-03-01T07:08:51.107Z,8.31
2019-03-01T07:11:56.487Z,8.29
2019-03-01T07:15:01.794Z,8.37
2019-03-01T07:18:08.076Z,8.33
2019-03-01T07:21:13.345Z,8.42
2019-03-01T07:24:18.706Z,8.57
2019-03-01T07:27:24.042Z,8.60
2019-03-01T07:30:48.493Z,8.52
2019-03-01T07:34:05.737Z,8.60
2019-03-01T07:37:13.109Z,8.63
2019-03-01T07:40:18.425Z,8.72
2019-03-01T07:43:23.696Z,8.73
2019-03-01T07:46:28.981Z,8.78
2019-03-01T07:49:34.246Z,8.89
2019-03-01T07:52:39.563Z,8.85
2019-03-01T07:55:46.547Z,8.91
2019-03-01T07:58:51.884Z,8.90
2019-03-01T08:01:57.163Z,8.96
2019-03-01T08:05:04.214Z,8.98
2019-03-01T08:08:09.384Z,9.00
2019-03-01T08:11:14.666Z,9.10
2019-03-01T08:14:20.003Z,9.17
2019-03-01T08:17:27.645Z,9.07
2019-03-01T08:20:33.819Z,9.25
2019-03-01T08:23:39.479Z,9.23
2019-03-01T08:26:44.784Z,9.21
2019-03-01T08:29:52.317Z,9.34
2019-03-01T08:32:57.620Z,9.22
2019-03-01T08:36:05.844Z,9.10
2019-03-01T08:39:09.929Z,9.18
2019-03-01T08:42:15.241Z,9.09
2019-03-01T08:45:20.522Z,9.21
2019-03-01T08:48:25.737Z,9.18
2019-03-01T08:51:31.177Z,9.05
2019-03-01T08:54:36.426Z,9.02
2019-03-01T08:57:44.478Z,8.95
2019-03-01T09:00:48.793Z,8.82
2019-03-01T09:04:01.791Z,8.66
2019-03-01T09:07:07.167Z,8.55
2019-03-01T09:10:14.188Z,8.44
2019-03-01T09:13:19.423Z,8.44
2019-03-01T09:16:24.658Z,8.50
2019-03-01T09:19:29.938Z,8.44
2019-03-01T09:22:35.158Z,8.45
2019-03-01T09:25:41.384Z,8.37
2019-03-01T09:28:47.496Z,8.46
2019-03-01T09:31:54.282Z,8.30
2019-03-01T09:35:26.436Z,8.20
2019-03-01T09:38:31.885Z,8.15
2019-03-01T09:41:40.602Z,8.04
2019-03-01T09:44:44.171Z,7.93
2019-03-01T09:47:49.486Z,7.63
2019-03-01T09:50:56.099Z,7.32
2019-03-01T09:54:01.372Z,7.39
2019-03-01T09:57:06.718Z,7.31
2019-03-01T10:00:13.367Z,7.35
2019-03-01T10:03:18.619Z,7.19
2019-03-01T10:06:23.843Z,7.26
2019-03-01T10:09:29.167Z,7.23
2019-03-01T10:12:34.400Z,7.25
2019-03-01T10:15:39.789Z,7.11
2019-03-01T10:18:46.595Z,7.02
2019-03-01T10:21:53.467Z,6.99
2019-03-01T10:24:58.739Z,6.81
2019-03-01T10:28:04.103Z,6.74
2019-03-01T10:31:09.456Z,6.68
2019-03-01T10:34:14.744Z,6.78
2019-03-01T10:37:31.589Z,6.78
2019-03-01T10:40:36.927Z,6.68
2019-03-01T10:43:42.238Z,6.33
2019-03-01T10:46:47.485Z,6.28
2019-03-01T10:49:54.367Z,6.25
2019-03-01T10:52:59.625Z,6.35
2019-03-01T10:56:04.971Z,6.33
2019-03-01T10:59:10.268Z,6.16
2019-03-01T11:02:15.543Z,6.12
2019-03-01T11:05:20.957Z,6.09
2019-03-01T11:08:26.231Z,6.22
2019-03-01T11:11:31.506Z,6.19
2019-03-01T11:14:36.800Z,6.01
2019-03-01T11:17:42.134Z,5.99
2019-03-01T11:20:47.480Z,5.93
2019-03-01T11:23:52.739Z,5.91
2019-03-01T11:26:58.099Z,5.90
2019-03-01T11:30:03.456Z,6.00
2019-03-01T11:33:08.834Z,6.05
2019-03-01T11:36:14.098Z,6.06
2019-03-01T11:39:19.755Z,6.09
2019-03-01T11:42:25.067Z,6.12
2019-03-01T11:45:30.418Z,5.94
2019-03-01T11:48:35.661Z,5.86
2019-03-01T11:51:40.997Z,6.10
2019-03-01T11:54:58.471Z,6.11
2019-03-01T11:58:03.778Z,6.11
2019-03-01T12:01:16.930Z,6.11
2019-03-01T12:04:16.230Z,6.06
2019-03-01T12:07:21.585Z,6.35
2019-03-01T12:10:27.035Z,6.23
2019-03-01T12:13:33.500Z,6.14
2019-03-01T12:16:38.766Z,6.10
2019-03-01T12:19:44.120Z,5.82
2019-03-01T12:22:51.857Z,5.78
2019-03-01T12:25:57.241Z,5.77
2019-03-01T12:29:21.538Z,5.68
2019-03-01T12:32:26.796Z,5.77
2019-03-01T12:35:32.146Z,5.66
2019-03-01T12:38:37.405Z,5.60
2019-03-01T12:41:42.710Z,5.57
2019-03-01T12:44:48.027Z,5.48
2019-03-01T12:47:53.318Z,5.36
2019-03-01T12:50:58.635Z,5.36
2019-03-01T12:54:03.893Z,5.37
2019-03-01T12:57:09.179Z,5.40
2019-03-01T13:00:17.011Z,5.33
2019-03-01T13:03:22.246Z,5.30
2019-03-01T13:06:27.688Z,5.22
2019-03-01T13:09:33.103Z,5.32
2019-03-01T13:12:38.420Z,5.27
2019-03-01T13:15:45.439Z,5.26
2019-03-01T13:18:52.363Z,5.25
2019-03-01T13:21:58.765Z,5.13
2019-03-01T13:25:04.070Z,5.09
2019-03-01T13:28:09.321Z,5.07
2019-03-01T13:31:17.608Z,5.07
2019-03-01T13:34:22.898Z,5.08
2019-03-01T13:37:28.196Z,5.16
2019-03-01T13:40:33.477Z,5.19
2019-03-01T13:43:38.836Z,5.20
2019-03-01T13:46:44.074Z,5.18
2019-03-01T13:49:49.396Z,5.13
2019-03-01T13:52:54.739Z,5.03
2019-03-01T13:56:01.112Z,4.98
2019-03-01T13:59:06.588Z,5.05
2019-03-01T14:02:11.951Z,5.04
2019-03-01T14:05:17.642Z,5.06
2019-03-01T14:08:23.044Z,5.04
2019-03-01T14:11:30.345Z,4.87
2019-03-01T14:14:35.874Z,4.86
2019-03-01T14:17:41.184Z,4.91
2019-03-01T14:20:46.442Z,4.93
2019-03-01T14:23:51.762Z,5.06
2019-03-01T14:26:59.067Z,4.94
2019-03-01T14:30:04.032Z,4.94
2019-03-01T14:33:09.361Z,4.98
2019-03-01T14:36:14.712Z,4.93
2019-03-01T14:39:19.977Z,4.91
2019-03-01T14:42:25.231Z,5.00
2019-03-01T14:45:30.602Z,4.96
2019-03-01T14:48:35.963Z,4.92
2019-03-01T14:51:46.509Z,4.86
2019-03-01T14:54:49.340Z,4.86
2019-03-01T14:58:13.326Z,4.91
2019-03-01T15:01:49.017Z,4.98
2019-03-01T15:04:54.447Z,5.06
2019-03-01T15:07:59.709Z,5.06
2019-03-01T15:11:10.835Z,5.05
2019-03-01T15:14:16.105Z,5.01
2019-03-01T15:17:22.576Z,5.05
2019-03-01T15:20:28.056Z,5.13
2019-03-01T15:23:33.410Z,5.10
2019-03-01T15:26:40.312Z,5.10
2019-03-01T15:29:45.560Z,5.05
2019-03-01T15:32:52.456Z,5.06
2019-03-01T15:35:57.949Z,5.32
2019-03-01T15:39:05.739Z,5.26
2019-03-01T15:42:14.384Z,5.38
2019-03-01T15:45:18.704Z,5.37
2019-03-01T15:48:23.964Z,5.16
2019-03-01T15:51:29.274Z,5.23
2019-03-01T15:54:35.755Z,5.18
2019-03-01T15:57:41.744Z,5.21
2019-03-01T16:00:48.951Z,5.09
2019-03-01T16:03:57.137Z,5.06
2019-03-01T16:07:01.210Z,4.97
2019-03-01T16:10:07.714Z,4.98
2019-03-01T16:13:13.337Z,4.92
2019-03-01T16:16:18.772Z,4.92
2019-03-01T16:19:24.039Z,4.81
2019-03-01T16:22:29.295Z,4.92
2019-03-01T16:25:34.662Z,4.84
2019-03-01T16:28:39.983Z,4.91
2019-03-01T16:31:45.260Z,4.72
2019-03-01T16:34:50.536Z,4.74
2019-03-01T16:37:57.886Z,4.69
2019-03-01T16:41:07.540Z,4.73
2019-03-01T16:44:10.384Z,4.62
2019-03-01T16:47:15.629Z,4.65
2019-03-01T16:50:21.214Z,4.58
2019-03-01T16:53:28.809Z,4.52
2019-03-01T16:56:34.578Z,4.53
2019-03-01T16:59:42.821Z,4.50
2019-03-01T17:02:49.065Z,4.50
2019-03-01T17:05:55.142Z,4.49
2019-03-01T17:09:01.645Z,4.48
2019-03-01T17:12:08.623Z,4.46
2019-03-01T17:15:18.361Z,4.48
2019-03-01T17:18:23.400Z,4.47
2019-03-01T17:21:33.739Z,4.50
2019-03-01T17:24:39.131Z,4.46
2019-03-01T17:27:44.561Z,4.45
2019-03-01T17:30:50.601Z,4.41
2019-03-01T17:33:57.997Z,4.35
2019-03-01T17:37:03.454Z,4.44
2019-03-01T17:40:10.389Z,4.47
2019-03-01T17:43:15.653Z,4.52
2019-03-01T17:46:20.936Z,4.43
2019-03-01T17:49:29.670Z,4.41
2019-03-01T17:52:33.681Z,4.46
2019-03-01T17:55:41.754Z,4.44
2019-03-01T17:58:47.063Z,4.48
2019-03-01T18:01:52.416Z,4.37
2019-03-01T18:04:57.777Z,4.43
2019-03-01T18:08:04.957Z,4.42
2019-03-01T18:11:10.478Z,4.44
2019-03-01T18:14:15.738Z,4.42
2019-03-01T18:17:21.001Z,4.35
2019-03-01T18:20:26.274Z,4.30
2019-03-01T18:23:34.270Z,4.33
2019-03-01T18:26:39.978Z,4.36
2019-03-01T18:29:45.708Z,4.38
2019-03-01T18:32:51.106Z,4.33
2019-03-01T18:35:59.130Z,4.38
2019-03-01T18:39:06.992Z,4.42
2019-03-01T18:42:13.268Z,4.35
2019-03-01T18:45:18.790Z,4.37
2019-03-01T18:48:24.170Z,4.36
2019-03-01T18:51:29.516Z,4.34
2019-03-01T18:54:35.906Z,4.32
2019-03-01T18:57:42.032Z,4.35
2019-03-01T19:00:47.560Z,4.46
2019-03-01T19:03:52.939Z,4.41
2019-03-01T19:06:58.339Z,4.41
2019-03-01T19:10:06.761Z,4.38
2019-03-01T19:13:13.294Z,4.34
2019-03-01T19:16:18.745Z,4.33
2019-03-01T19:19:29.901Z,4.33
2019-03-01T19:22:31.242Z,4.34
2019-03-01T19:25:36.599Z,4.32
2019-03-01T19:28:42.895Z,4.34
2019-03-01T19:31:48.286Z,4.29
2019-03-01T19:34:53.793Z,4.27
2019-03-01T19:37:59.214Z,4.23
2019-03-01T19:41:04.718Z,4.31
2019-03-01T19:44:10.044Z,4.30
2019-03-01T19:47:15.339Z,4.35
2019-03-01T19:50:21.814Z,4.22
2019-03-01T19:53:27.734Z,4.24
2019-03-01T19:56:33.099Z,4.28
2019-03-01T19:59:38.450Z,4.35
2019-03-01T20:02:43.874Z,4.30
2019-03-01T20:05:49.233Z,4.27
2019-03-01T20:08:54.594Z,4.27
2019-03-01T20:12:02.755Z,4.28
2019-03-01T20:15:10.571Z,4.36
2019-03-01T20:18:15.953Z,4.35
2019-03-01T20:21:21.341Z,4.31
2019-03-01T20:24:27.769Z,4.31
2019-03-01T20:27:35.576Z,4.34
2019-03-01T20:30:39.974Z,4.31
2019-03-01T20:33:45.434Z,4.33
2019-03-01T20:36:52.966Z,4.30
2019-03-01T20:39:57.900Z,4.29
2019-03-01T20:43:07.177Z,4.38
2019-03-01T20:46:13.511Z,4.36
2019-03-01T20:49:18.785Z,4.27
2019-03-01T20:52:24.103Z,4.30
2019-03-01T20:55:29.435Z,4.28
2019-03-01T20:58:35.877Z,4.29
2019-03-01T21:01:42.028Z,4.28
2019-03-01T21:04:53.311Z,4.26
2019-03-01T21:07:54.891Z,4.26
2019-03-01T21:11:00.533Z,4.28
2019-03-01T21:14:07.401Z,4.23
2019-03-01T21:17:12.790Z,4.28
2019-03-01T21:20:19.568Z,4.20
2019-03-01T21:23:25.225Z,4.30
2019-03-01T21:26:31.398Z,4.20
2019-03-01T21:29:36.686Z,4.16
2019-03-01T21:32:41.992Z,4.24
2019-03-01T21:35:47.806Z,4.20
2019-03-01T21:38:54.444Z,4.20
2019-03-01T21:41:59.780Z,4.17
2019-03-01T21:45:05.629Z,4.18
2019-03-01T21:48:11.000Z,4.09
2019-03-01T21:51:18.421Z,4.15
2019-03-01T21:54:23.194Z,4.17
2019-03-01T21:57:31.177Z,4.12
2019-03-01T22:00:35.548Z,4.08
2019-03-01T22:03:43.045Z,4.04
2019-03-01T22:06:48.324Z,4.04
2019-03-01T22:09:56.759Z,4.01
2019-03-01T22:13:01.426Z,4.01
2019-03-01T22:16:06.788Z,4.07
2019-03-01T22:19:12.193Z,4.03
2019-03-01T22:22:18.585Z,4.01
2019-03-01T22:25:23.864Z,4.03
2019-03-01T22:28:32.704Z,3.98
2019-03-01T22:31:37.245Z,4.04
2019-03-01T22:34:42.619Z,4.10
2019-03-01T22:37:48.037Z,4.18
2019-03-01T22:40:53.357Z,4.15
2019-03-01T22:44:01.724Z,4.09
2019-03-01T22:47:05.662Z,4.15
2019-03-01T22:50:13.909Z,4.14
2019-03-01T22:53:19.217Z,4.18
2019-03-01T22:56:24.612Z,4.10
2019-03-01T22:59:30.097Z,4.10
2019-03-01T23:02:35.783Z,4.05
2019-03-01T23:05:41.021Z,4.06
2019-03-01T23:08:46.323Z,4.07
2019-03-01T23:11:51.577Z,4.04
2019-03-01T23:14:56.940Z,4.02
2019-03-01T23:18:05.641Z,4.01
2019-03-01T23:21:09.176Z,4.07
2019-03-01T23:24:14.510Z,4.07
2019-03-01T23:27:19.864Z,4.05
2019-03-01T23:30:25.745Z,4.03
2019-03-01T23:33:32.724Z,4.05
2019-03-01T23:36:38.169Z,4.09
2019-03-01T23:39:43.427Z,4.06
2019-03-01T23:42:48.697Z,3.99
2019-03-01T23:45:55.220Z,3.99
2019-03-01T23:49:06.188Z,3.98
2019-03-01T23:52:07.698Z,3.98
2019-03-01T23:55:15.665Z,3.94
2019-03-01T23:58:20.121Z,3.97
